KBL weather

Hamid Karzai International Airport
Kabul, Kabul Province, Afghanistan

Public forecast

Using degrees Celsius for public forecast. Weather courtesy of forecast.io.

METAR (pilot weather report)

Retrieved 2019/05/20 06:50 UTC (1 hour ago):

OAKB 200650Z 33004KT 230V360 9999 FEW070 23/04 Q1022 NOSIG RMK A3020 BLU BLU

TAF (pilot weather forecast)

Retrieved 2019/05/20 06:05 UTC (2 hours ago):

TAF OAKB 200505Z 2006/2106 VRB02KT 9999 FEW100 BECMG 2006/2008 36012KT BECMG 2008/2010 SCT080 TEMPO 2011/2015 01015G25KT BECMG 2017/2018 CAVOK BECMG 2019/2020 VRB02KT